Weather observations for the past three days for
Smithfield, Johnston County Airport
Metric (Imperial)
Date Time (edt) Wind (kph) Vis. (km) Weather Sky Cond. Temperature (ºC) Relative Humidity Wind Chill (°C) Heat Index (°C) Pressure Precipitation (cm)
Air Dwpt 6 hour altimeter (cm) sea level (mb) 1 hr 3 hr 6 hr
Max. Min.
04 11:55 W 15 G 26 16.09 Fair CLR 22 7 38% 76.25 0.0
04 11:35 SW 19 16.09 Fair CLR 22 9 44% 76.28 0.0
04 11:15 SW 13 G 26 16.09 Fair CLR 21 9 46% 76.28 0.0
04 10:55 SW 19 16.09 Fair CLR 21 9 46% 76.3 0.0
04 10:35 SW 15 16.09 Fair CLR 20 9 49% 76.3 0.0
04 10:15 SW 13 16.09 Fair CLR 19 10 56% 76.3 0.0
04 09:55 SW 9 16.09 Fair CLR 18 10 60% 76.3 0.0
04 09:35 SW 11 16.09 Fair CLR 17 10 64% 76.3 0.0
04 09:15 SW 9 16.09 Fair CLR 16 10 68% 76.33 0.0
04 08:55 SW 9 16.09 Fair CLR 15 10 72% 76.33 0.0
04 08:35 Vrbl 7 16.09 Fair CLR 13 11 88% 76.33 0.0
04 07:55 Calm 16.09 Fair CLR 9 7 8.3 4.1 87% 76.35 0.0
04 07:35 Calm 16.09 Fair CLR 7 6 93% 76.35 0.0
04 07:15 Calm 16.09 Fair CLR 5 5 100% 76.35 0.0
04 06:55 Calm 16.09 Fair CLR 4 4 100% 76.35 0.0
04 06:35 Calm 16.09 Fair CLR 4 4 100% 76.35 0.0
04 06:15 Calm 16.09 Fair CLR 4 4 100% 76.33 0.0
04 05:55 Calm 16.09 Fair CLR 4 4 100% 76.33 0.0
04 05:35 Calm 16.09 Fair CLR 4 4 100% 76.33 0.0
04 05:15 Calm 16.09 Fair CLR 4 4 100% 76.33 0.0
04 04:55 Calm 16.09 Fair CLR 4 4 100% 76.33 0.0
04 04:35 Calm 16.09 Fair CLR 5 4 93% 76.33 0.0
04 04:15 Calm 16.09 Fair CLR 5 4 93% 76.33 0.0
04 03:55 Calm 16.09 Fair CLR 5 4 93% 76.33 0.0
04 03:35 Calm 16.09 Fair CLR 5 4 93% 76.33 0.0
04 03:15 Calm 16.09 Fair CLR 5 4 93% 76.33 0.0
04 02:55 Calm 16.09 Fair CLR 5 4 93% 76.33 0.0
04 02:35 Calm 16.09 Fair CLR 5 4 93% 76.35 0.0
04 02:07 Calm 16.09 Fair CLR 5 5 100% 76.35 0.0
04 01:55 Calm 16.09 Fair CLR 5 5 13.2 4.8 100% 76.35 0.0
04 01:35 Calm 16.09 Fair CLR 5 5 100% 76.35 0.0
04 01:15 Calm 16.09 Fair CLR 5 5 100% 76.35 0.0
04 00:55 Calm 16.09 Fair CLR 6 5 93% 76.35 0.0
04 00:35 Calm 16.09 Fair CLR 6 5 93% 76.35 0.0
04 00:15 Calm 16.09 Fair CLR 6 5 93% 76.35 0.0
03 23:55 Calm 16.09 Fair CLR 6 5 93% 76.35 0.0
03 23:35 Calm 16.09 Fair CLR 6 6 100% 76.33 0.0
03 23:15 Calm 16.09 Fair CLR 6 6 100% 76.35 0.0
03 22:55 Calm 16.09 Fair CLR 7 6 93% 76.35 0.0
03 22:35 Calm 16.09 Fair CLR 7 6 93% 76.33 0.0
03 22:15 Calm 16.09 Fair CLR 7 6 93% 76.33 0.0
03 21:55 Calm 16.09 Fair CLR 8 6 87% 76.33 0.0
03 21:35 Calm 16.09 Fair CLR 8 6 87% 76.3 0.0
03 21:15 Calm 16.09 Fair CLR 9 6 82% 76.3 0.0
03 20:55 Calm 16.09 Fair CLR 10 6 76% 76.28 0.0
03 20:35 Calm 16.09 Fair CLR 10 6 76% 76.25 0.0
03 20:15 Calm 16.09 Fair CLR 12 6 67% 76.25 0.0
03 19:55 Calm 16.09 Fair CLR 13 6 19.8 13.1 63% 76.23 0.0
03 19:35 Calm 16.09 Fair CLR 15 5 51% 76.23 0.0
03 19:15 Calm 16.09 Fair CLR 17 2 37% 76.23 0.0
03 18:55 NW 7 16.09 Fair CLR 19 0 28% 76.2 0.0
03 18:35 NW 9 16.09 Fair CLR 19 -1 26% 76.23 0.0
03 18:15 Calm 16.09 Fair CLR 19 -2 24% 76.23 0.0
03 17:55 NW 9 16.09 Fair CLR 19 -1 26% 76.2 0.0
03 17:35 Calm 16.09 Fair CLR 20 -2 23% 76.2 0.0
03 17:15 Vrbl 11 16.09 Fair CLR 20 0 26% 76.23 0.0
03 16:55 Vrbl 6 16.09 Fair CLR 19 -1 26% 76.23 0.0
03 16:35 N 11 16.09 Fair CLR 19 -2 24% 76.23 0.0
03 16:15 Vrbl 9 16.09 Fair CLR 19 -1 26% 76.25 0.0
03 15:55 NW 11 16.09 Fair CLR 19 -2 24% 76.28 0.0
03 15:35 Vrbl 9 16.09 Fair CLR 19 -1 26% 76.3 0.0
03 15:15 Vrbl 9 16.09 Fair CLR 18 -1 28% 76.33 0.0
03 14:55 SW 9 16.09 Fair CLR 18 0 30% 76.33 0.0
03 14:35 W 17 G 28 16.09 Fair CLR 17 -2 27% 76.33 0.0
03 14:15 W 17 16.09 Fair CLR 18 0 30% 76.35 0.0
03 13:55 N 15 G 28 16.09 Fair CLR 17 -2 17.4 6.8 27% 76.38 0.0
03 13:35 NW 19 16.09 Fair CLR 17 0 32% 76.38 0.0
03 13:15 NW 13 16.09 Fair CLR 17 0 32% 76.4 0.0
03 12:55 W 17 G 26 16.09 Fair CLR 16 -1 31% 76.43 0.0
03 12:35 Vrbl 9 16.09 Fair CLR 16 1 36% 76.43 0.0
03 12:15 W 15 16.09 Fair CLR 15 1 39% 76.45 0.0
03 11:55 NW 15 16.09 Fair CLR 15 0 36% 76.45 0.0
03 11:35 NW 17 G 26 16.09 Fair CLR 15 0 36% 76.48 0.0
03 11:15 NW 15 16.09 Fair CLR 15 0 36% 76.48 0.0
03 10:55 N 13 16.09 Fair CLR 14 1 41% 76.48 0.0
03 10:35 NW 13 G 26 16.09 Fair CLR 14 1 41% 76.45 0.0
03 10:15 NW 13 16.09 Fair CLR 13 1 44% 76.45 0.0
03 09:55 NW 13 16.09 Fair CLR 13 2 47% 76.48 0.0
03 09:35 N 11 16.09 Fair CLR 12 3 54% 76.48 0.0
03 09:15 Vrbl 9 16.09 Fair CLR 11 5 67% 76.45 0.0
03 08:55 Vrbl 7 16.09 Fair CLR 10 6 76% 9 76.45 0.0
03 08:35 NW 7 16.09 Fair CLR 9 6 82% 8 76.45 0.0
03 08:15 Vrbl 7 16.09 Fair CLR 8 5 82% 7 76.43 0.0
03 07:55 NW 7 16.09 Fair CLR 7 5 6.8 2.8 87% 6 76.43 0.0
03 07:35 NW 6 16.09 Fair CLR 6 4 87% 76.4 0.0
03 07:15 NW 6 16.09 Fair CLR 5 4 93% 76.38 0.0
03 06:35 Calm 14.48 Fair CLR 3 3 100% 76.33 0.0
03 06:15 Calm 6.44 Fog/Mist CLR 3 3 100% 76.3 0.0
03 05:55 Calm 4.83 Fog/Mist CLR 3 3 100% 76.28 0.0
03 05:35 Calm 2.82 Fog/Mist CLR 4 4 100% 76.25 0.0
03 05:16 Calm 0.80 Fog VV005 4 4 100% 76.25 0.0
03 04:55 Calm 1.21 Fog/Mist VV005 4 4 100% 76.23 0.0
03 04:35 Calm 1.21 Fog/Mist VV005 4 4 100% 76.23 0.0
03 04:15 Calm 1.61 Fog/Mist CLR 5 5 100% 76.2 0.0
03 03:55 Calm 0.80 Fog VV005 5 5 100% 76.17 0.0
03 03:35 Calm 0.40 Fog VV002 5 5 100% 76.17 0.0
03 03:15 Calm 1.21 Fog/Mist VV005 5 5 100% 76.15 0.0
03 02:55 Calm 0.80 Fog VV005 6 6 100% 76.12 0.0
03 02:35 Calm 1.21 Fog/Mist VV005 6 6 100% 76.12 0.0
03 02:15 Calm 0.80 Fog VV005 6 6 100% 76.12 0.0
03 01:55 Calm 0.80 Fog VV005 7 6 11.1 6.4 93% 76.12 0.0
03 01:35 Calm 4.83 Fog/Mist CLR 7 7 100% 76.1 0.0
03 01:15 Calm 9.66 Fog/Mist CLR 7 7 100% 76.1 0.0
03 00:55 Calm 4.02 Fog/Mist CLR 7 7 100% 76.1 0.0
03 00:35 Calm 0.80 Fog VV005 7 7 100% 76.1 0.0
03 00:15 Calm 0.80 Fog VV005 7 7 100% 76.1 0.0
02 23:55 Calm 0.80 Fog VV005 8 8 100% 76.07 0.0
02 23:35 Calm 0.40 Fog VV002 8 8 100% 76.07 0.0
02 23:15 Calm 2.82 Fog/Mist CLR 8 8 100% 76.07 0.0
02 22:55 Calm 3.22 Fog/Mist CLR 9 9 100% 76.05 0.0
02 22:35 Calm 4.02 Fog/Mist CLR 9 9 100% 76.05 0.0
02 22:15 Calm 0.80 Fog VV005 9 9 100% 76.07 0.0
02 21:55 Calm 1.21 Fog/Mist VV005 9 9 100% 76.05 0.0
02 21:35 Calm 0.40 Fog VV002 10 9 94% 76.05 0.0
02 21:15 Calm 0.40 Fog VV002 10 10 100% 76.02 0.0
02 20:55 Calm 8.05 Fog/Mist CLR 11 10 94% 75.97 0.0
02 20:35 Calm 9.66 Fog/Mist SCT120 11 11 100% 75.97 0.0
02 20:15 Calm 9.66 Fog/Mist BKN120 11 11 100% 75.95 0.0
02 19:55 Calm 16.09 Mostly Cloudy SCT075 BKN120 11 11 12.3 11.1 100% 75.95 0.0
02 19:35 Calm 16.09 Overcast BKN075 BKN085 OVC110 12 11 94% 75.92 0.0
02 19:15 E 6 16.09 Overcast FEW075 OVC110 12 10 88% 75.92 0.0
02 18:55 Calm 16.09 Overcast FEW065 OVC110 12 10 88% 75.92 0.0
02 18:35 Calm 16.09 Overcast OVC100 12 10 88% 75.9 0.0
02 18:15 NE 7 16.09 Overcast OVC100 12 10 88% 75.9 0.0
02 17:55 NE 7 16.09 Overcast FEW033 OVC100 12 10 88% 75.87 0.0
02 17:35 NE 9 16.09 Overcast FEW049 SCT070 OVC090 12 10 88% 75.9 0.0
02 17:15 NE 11 16.09 Overcast BKN049 OVC065 12 10 88% 75.9 0.0
02 16:55 N 9 16.09 Overcast BKN045 BKN055 OVC070 12 10 88% 75.9 0.0 0.05
02 16:35 NE 9 16.09 Light Rain FEW011 SCT020 OVC044 12 10 88% 75.9 0.0
02 16:15 N 13 14.48 Overcast BKN013 BKN019 OVC039 12 10 88% 75.9 0.0
02 15:55 N 11 16.09 Overcast FEW010 SCT026 OVC039 12 10 88% 75.9 0.0 0.03
02 15:35 NE 11 16.09 Overcast SCT027 OVC038 12 11 94% 75.9 0.0
02 15:15 N 13 16.09 Overcast FEW012 BKN028 OVC038 12 10 88% 75.95 0.0
02 14:55 N 13 16.09 Overcast SCT012 BKN027 OVC038 12 10 88% 75.95 0.0 0.05
02 14:35 N 15 G 26 16.09 Light Rain SCT009 BKN014 OVC037 12 10 88% 75.92 0.0
02 14:15 NE 11 14.48 Overcast BKN009 BKN019 OVC075 12 11 94% 75.97 0.0
02 13:55 NE 9 16.09 Overcast BKN009 BKN015 OVC075 12 10 12.1 11.1 88% 75.97 0.0
02 13:35 NE 15 16.09 Overcast BKN009 OVC015 12 10 88% 75.97 0.0
02 13:15 NE 13 16.09 Overcast BKN009 BKN013 OVC065 12 10 88% 75.97 0.0
02 12:55 NE 17 16.09 Light Rain SCT011 BKN035 OVC070 11 10 94% 75.97 0.0 0.13
02 12:35 NE 17 16.09 Light Rain BKN012 BKN024 OVC085 11 10 94% 76.02 0.0
02 12:15 NE 15 16.09 Light Rain BKN014 BKN030 OVC080 11 10 94% 76.05 0.0
02 11:55 NE 20 16.09 Overcast SCT010 BKN013 OVC045 11 10 94% 76.05 0.0 0.08
02 11:35 NE 19 16.09 Overcast BKN010 BKN045 OVC070 12 10 88% 76 0.0
02 11:15 NE 20 16.09 Light Rain OVC007 12 11 94% 76 0.0
02 10:55 N 13 12.87 Light Rain BKN009 BKN016 OVC070 12 11 94% 76.02 0.0 0.23
02 10:35 N 15 9.66 Light Rain Fog/Mist SCT009 SCT016 OVC070 12 11 94% 76.05 0.0
02 10:15 N 13 12.87 Overcast BKN009 BKN026 OVC070 12 11 94% 76 0.0
02 09:55 N 11 16.09 NULL NULL 12 11 94% 75.97 0.0 0.05
02 09:35 N 15 16.09 NULL NULL 12 11 94% 75.95 0.0
02 09:15 Vrbl 9 16.09 Overcast OVC080 12 11 94% 75.95 0.0
02 08:55 N 9 16.09 Light Rain OVC080 12 11 94% 75.95 0.0 0.08
02 08:35 N 9 16.09 Light Rain OVC090 12 10 88% 75.92 0.0
02 08:15 N 9 16.09 Overcast OVC090 12 10 88% 75.92 0.0
02 07:55 N 11 16.09 Light Rain OVC090 12 10 12.6 10.5 88% 75.9 0.0 0.15
02 07:35 N 11 G 26 12.87 Overcast OVC090 12 10 88% 75.9 0.0
02 07:15 N 9 16.09 Overcast SCT075 OVC090 12 10 88% 75.92 0.0
02 06:55 Vrbl 6 16.09 Light Rain BKN075 OVC085 12 10 88% 75.92 0.0 0.05
02 06:35 N 7 16.09 Light Rain BKN085 OVC090 12 10 88% 75.92 0.0
02 06:15 Vrbl 9 16.09 Overcast OVC085 13 10 82% 75.92 0.0
02 05:55 Vrbl 6 14.48 Light Drizzle FEW065 SCT075 OVC090 13 10 82% 75.92 0.0
02 05:35 Calm 16.09 Overcast FEW070 OVC110 12 11 94% 75.9 0.0
02 05:15 Calm 16.09 Mostly Cloudy BKN120 11 11 100% 75.92 0.0
02 04:55 Calm 16.09 Mostly Cloudy FEW050 BKN120 11 11 100% 75.9 0.0
02 04:35 Calm 16.09 Partly Cloudy FEW039 SCT050 11 11 100% 75.9 0.0
02 04:15 Calm 16.09 Fair CLR 11 10 94% 75.9 0.0
02 03:55 Calm 16.09 Partly Cloudy SCT043 11 10 94% 75.9 0.0
02 03:15 Calm 16.09 Overcast OVC033 11 10 94% 75.87 0.0
02 02:55 Calm 16.09 Overcast OVC033 11 10 94% 75.9 0.0
02 02:35 Calm 16.09 Mostly Cloudy SCT030 BKN035 11 10 94% 75.9 0.0
02 02:15 Calm 16.09 Overcast SCT028 OVC033 11 10 94% 75.9 0.0
02 01:55 Calm 16.09 Mostly Cloudy FEW026 BKN033 11 10 12.8 9.8 94% 75.92 0.0
02 01:35 Calm 16.09 Fair CLR 11 10 94% 75.92 0.0
02 01:15 Calm 16.09 Fair CLR 10 10 100% 75.95 0.0
02 00:55 Calm 16.09 Fair CLR 11 10 94% 75.95 0.0
02 00:35 Calm 16.09 Fair CLR 10 10 100% 75.97 0.0
02 00:15 Calm 16.09 Fair CLR 10 10 100% 75.97 0.0
01 23:55 Calm 16.09 Fair CLR 10 10 100% 75.97 0.0
01 23:35 Calm 16.09 Fair CLR 10 10 100% 76 0.0
01 23:15 Calm 16.09 Fair CLR 10 9 94% 76.02 0.0
01 22:55 Calm 16.09 Fair CLR 10 9 94% 76.02 0.0
01 22:35 Calm 16.09 A Few Clouds FEW039 10 9 94% 76.02 0.0
01 22:15 Calm 16.09 Fair CLR 10 9 94% 76.02 0.0
01 21:55 Calm 16.09 Fair CLR 10 10 100% 76.02 0.0
01 21:35 Calm 16.09 Fair CLR 10 10 100% 76.02 0.0
01 21:15 Calm 16.09 Fair CLR 11 10 94% 76.02 0.0
01 20:55 Calm 16.09 Partly Cloudy FEW046 SCT055 11 10 94% 76 0.0
01 20:35 Calm 16.09 Mostly Cloudy SCT044 BKN050 12 10 88% 75.97 0.0
01 20:15 Calm 16.09 Mostly Cloudy BKN045 BKN075 12 10 88% 75.97 0.0
01 19:55 Calm 16.09 Overcast BKN042 OVC050 13 10 13.7 10.9 82% 75.97 0.0
01 19:35 SE 6 16.09 Overcast BKN040 OVC050 13 10 82% 75.97 0.0
01 19:15 Calm 16.09 Overcast SCT040 BKN049 OVC055 13 9 77% 76 0.0
01 18:55 SE 7 16.09 Overcast SCT040 BKN046 OVC060 13 9 77% 75.97 0.0
01 18:35 Calm 16.09 Overcast BKN043 OVC050 13 9 77% 76 0.0
01 18:15 Calm 16.09 Overcast FEW036 BKN045 OVC055 13 8 72% 76.02 0.0
01 17:55 Calm 16.09 Overcast FEW036 SCT044 OVC050 13 9 77% 76.02 0.0
01 17:35 Calm 16.09 Overcast BKN045 OVC055 13 8 72% 76.05 0.0
01 17:15 Calm 16.09 Overcast BKN043 OVC055 13 8 72% 76.05 0.0
01 16:55 Calm 16.09 Light Drizzle FEW045 OVC060 13 8 72% 76.05 0.0
01 16:35 Calm 16.09 Overcast BKN055 BKN075 OVC085 13 8 72% 76.05 0.0
01 16:15 Calm 16.09 Overcast FEW049 SCT060 OVC085 13 8 72% 76.05 0.0
01 15:55 Calm 16.09 Overcast BKN055 OVC075 13 7 67% 76.1 0.0
01 15:35 Vrbl 6 16.09 Overcast FEW049 BKN060 OVC075 13 7 67% 76.12 0.0
01 15:15 NE 9 16.09 Overcast BKN060 BKN070 OVC090 13 7 67% 76.12 0.0
01 14:55 Calm 16.09 Overcast BKN050 OVC080 12 8 77% 76.15 0.0 0.03
01 14:35 Calm 16.09 Light Drizzle OVC050 11 8 82% 76.17 0.0
01 14:15 Vrbl 7 16.09 Overcast FEW048 OVC055 11 8 82% 76.17 0.0
01 13:55 S 9 16.09 Light Drizzle OVC050 11 8 16.5 11.4 82% 76.17 0.0
01 13:35 S 9 16.09 Overcast OVC050 12 7 72% 76.2 0.0
01 13:15 S 9 11.27 Overcast with Haze OVC050 15 4 48% 76.23 0.0
01 12:55 Vrbl 7 16.09 Overcast BKN055 OVC065 15 3 45% 76.2 0.0
01 12:35 NE 15 16.09 Overcast OVC065 15 4 48% 76.2 0.0
Date Time (edt) Wind (kph) Vis. (km) Weather Sky Cond. Air Dwpt Max. Min. Relative Humidity Wind Chill (°C) Heat Index (°C) altimeter (cm) sea level (mb) 1 hr 3 hr 6 hr
6 hour
Temperature (ºC) Pressure Precipitation (cm)